sensor_id;sensor_type;location;lat;lon;timestamp;P1;durP1;ratioP1;P2;durP2;ratioP2
16354;SDS011;8287;51.644;8.494;2022-10-31T00:01:08;126.00;;;120.55;;
16354;SDS011;8287;51.644;8.494;2022-10-31T00:03:36;126.68;;;121.30;;
16354;SDS011;8287;51.644;8.494;2022-10-31T00:06:03;156.90;;;149.93;;
16354;SDS011;8287;51.644;8.494;2022-10-31T00:08:30;145.30;;;138.27;;
16354;SDS011;8287;51.644;8.494;2022-10-31T00:10:56;125.05;;;119.70;;
16354;SDS011;8287;51.644;8.494;2022-10-31T00:13:23;141.10;;;134.68;;
16354;SDS011;8287;51.644;8.494;2022-10-31T00:15:51;82.40;;;78.47;;
16354;SDS011;8287;51.644;8.494;2022-10-31T00:18:17;69.35;;;66.20;;
16354;SDS011;8287;51.644;8.494;2022-10-31T00:20:44;135.48;;;128.88;;
16354;SDS011;8287;51.644;8.494;2022-10-31T00:23:11;72.13;;;68.32;;
16354;SDS011;8287;51.644;8.494;2022-10-31T00:25:38;132.50;;;126.90;;
16354;SDS011;8287;51.644;8.494;2022-10-31T00:28:05;126.07;;;120.43;;
16354;SDS011;8287;51.644;8.494;2022-10-31T00:30:34;121.13;;;115.72;;
16354;SDS011;8287;51.644;8.494;2022-10-31T00:33:04;124.45;;;119.03;;
16354;SDS011;8287;51.644;8.494;2022-10-31T00:35:30;80.50;;;76.97;;
16354;SDS011;8287;51.644;8.494;2022-10-31T00:37:57;114.28;;;109.22;;
16354;SDS011;8287;51.644;8.494;2022-10-31T00:40:24;117.22;;;112.20;;
16354;SDS011;8287;51.644;8.494;2022-10-31T00:42:50;152.63;;;146.02;;
16354;SDS011;8287;51.644;8.494;2022-10-31T00:45:17;56.38;;;53.25;;
16354;SDS011;8287;51.644;8.494;2022-10-31T00:47:44;122.72;;;117.18;;
16354;SDS011;8287;51.644;8.494;2022-10-31T00:50:11;113.32;;;108.40;;
16354;SDS011;8287;51.644;8.494;2022-10-31T00:52:38;128.95;;;123.05;;
16354;SDS011;8287;51.644;8.494;2022-10-31T00:55:05;93.05;;;88.93;;
16354;SDS011;8287;51.644;8.494;2022-10-31T00:57:32;133.40;;;127.60;;
16354;SDS011;8287;51.644;8.494;2022-10-31T00:59:58;119.65;;;114.18;;
16354;SDS011;8287;51.644;8.494;2022-10-31T01:02:25;114.38;;;109.28;;
16354;SDS011;8287;51.644;8.494;2022-10-31T01:04:51;84.03;;;79.78;;
16354;SDS011;8287;51.644;8.494;2022-10-31T01:07:19;128.65;;;123.03;;
16354;SDS011;8287;51.644;8.494;2022-10-31T01:09:46;125.90;;;120.13;;
16354;SDS011;8287;51.644;8.494;2022-10-31T01:12:12;60.83;;;57.67;;
16354;SDS011;8287;51.644;8.494;2022-10-31T01:14:42;96.93;;;92.30;;
16354;SDS011;8287;51.644;8.494;2022-10-31T01:17:09;86.13;;;82.05;;
16354;SDS011;8287;51.644;8.494;2022-10-31T01:19:36;138.25;;;131.88;;
16354;SDS011;8287;51.644;8.494;2022-10-31T01:22:02;102.70;;;97.43;;
16354;SDS011;8287;51.644;8.494;2022-10-31T01:24:30;44.05;;;41.33;;
16354;SDS011;8287;51.644;8.494;2022-10-31T01:26:58;93.38;;;88.75;;
16354;SDS011;8287;51.644;8.494;2022-10-31T01:29:24;103.60;;;98.72;;
16354;SDS011;8287;51.644;8.494;2022-10-31T01:31:51;134.82;;;128.60;;
16354;SDS011;8287;51.644;8.494;2022-10-31T01:34:17;131.00;;;125.28;;
16354;SDS011;8287;51.644;8.494;2022-10-31T01:36:44;104.80;;;99.63;;
16354;SDS011;8287;51.644;8.494;2022-10-31T01:39:16;134.35;;;128.38;;
16354;SDS011;8287;51.644;8.494;2022-10-31T01:41:45;135.95;;;129.63;;
16354;SDS011;8287;51.644;8.494;2022-10-31T01:47:18;87.50;;;82.80;;
16354;SDS011;8287;51.644;8.494;2022-10-31T01:49:49;112.43;;;106.50;;
16354;SDS011;8287;51.644;8.494;2022-10-31T01:52:20;89.63;;;85.10;;
16354;SDS011;8287;51.644;8.494;2022-10-31T01:54:51;108.43;;;103.50;;
16354;SDS011;8287;51.644;8.494;2022-10-31T01:57:23;100.78;;;95.70;;
16354;SDS011;8287;51.644;8.494;2022-10-31T01:59:52;88.93;;;84.40;;
16354;SDS011;8287;51.644;8.494;2022-10-31T02:02:23;94.85;;;90.38;;
16354;SDS011;8287;51.644;8.494;2022-10-31T02:04:51;95.30;;;90.65;;
16354;SDS011;8287;51.644;8.494;2022-10-31T02:07:22;132.65;;;126.07;;
16354;SDS011;8287;51.644;8.494;2022-10-31T02:09:52;84.40;;;80.13;;
16354;SDS011;8287;51.644;8.494;2022-10-31T02:12:21;102.70;;;98.05;;
16354;SDS011;8287;51.644;8.494;2022-10-31T02:14:49;112.90;;;107.63;;
16354;SDS011;8287;51.644;8.494;2022-10-31T02:17:16;124.30;;;118.60;;
16354;SDS011;8287;51.644;8.494;2022-10-31T02:19:45;146.57;;;140.32;;
16354;SDS011;8287;51.644;8.494;2022-10-31T02:22:20;110.68;;;105.57;;
16354;SDS011;8287;51.644;8.494;2022-10-31T02:24:58;117.35;;;111.72;;
16354;SDS011;8287;51.644;8.494;2022-10-31T02:27:43;102.20;;;97.00;;
16354;SDS011;8287;51.644;8.494;2022-10-31T02:30:23;109.72;;;104.55;;
16354;SDS011;8287;51.644;8.494;2022-10-31T02:32:59;109.43;;;104.38;;
16354;SDS011;8287;51.644;8.494;2022-10-31T02:35:39;99.20;;;94.28;;
16354;SDS011;8287;51.644;8.494;2022-10-31T02:38:16;131.88;;;125.90;;
16354;SDS011;8287;51.644;8.494;2022-10-31T02:40:53;108.30;;;103.40;;
16354;SDS011;8287;51.644;8.494;2022-10-31T02:43:29;146.90;;;140.15;;
16354;SDS011;8287;51.644;8.494;2022-10-31T02:46:02;151.43;;;144.38;;
16354;SDS011;8287;51.644;8.494;2022-10-31T02:48:38;129.45;;;123.78;;
16354;SDS011;8287;51.644;8.494;2022-10-31T02:51:07;135.73;;;129.10;;
16354;SDS011;8287;51.644;8.494;2022-10-31T02:53:36;137.27;;;130.98;;
16354;SDS011;8287;51.644;8.494;2022-10-31T02:56:04;139.00;;;132.93;;
16354;SDS011;8287;51.644;8.494;2022-10-31T02:58:36;167.80;;;160.60;;
16354;SDS011;8287;51.644;8.494;2022-10-31T03:01:20;182.10;;;173.90;;
16354;SDS011;8287;51.644;8.494;2022-10-31T03:04:19;103.50;;;98.45;;
16354;SDS011;8287;51.644;8.494;2022-10-31T03:06:59;118.43;;;112.53;;
16354;SDS011;8287;51.644;8.494;2022-10-31T03:09:32;124.07;;;118.07;;
16354;SDS011;8287;51.644;8.494;2022-10-31T03:12:04;102.20;;;97.03;;
16354;SDS011;8287;51.644;8.494;2022-10-31T03:14:38;115.40;;;110.00;;
16354;SDS011;8287;51.644;8.494;2022-10-31T03:17:10;113.07;;;107.55;;
16354;SDS011;8287;51.644;8.494;2022-10-31T03:19:47;130.50;;;124.47;;
16354;SDS011;8287;51.644;8.494;2022-10-31T03:22:16;117.20;;;111.85;;
16354;SDS011;8287;51.644;8.494;2022-10-31T03:24:47;126.85;;;120.40;;
16354;SDS011;8287;51.644;8.494;2022-10-31T03:27:15;118.55;;;112.70;;
16354;SDS011;8287;51.644;8.494;2022-10-31T03:29:46;114.68;;;109.05;;
16354;SDS011;8287;51.644;8.494;2022-10-31T03:32:17;114.25;;;109.07;;
16354;SDS011;8287;51.644;8.494;2022-10-31T03:34:48;143.43;;;136.95;;
16354;SDS011;8287;51.644;8.494;2022-10-31T03:37:19;150.73;;;143.65;;
16354;SDS011;8287;51.644;8.494;2022-10-31T03:39:49;165.35;;;157.85;;
16354;SDS011;8287;51.644;8.494;2022-10-31T03:42:17;147.75;;;140.95;;
16354;SDS011;8287;51.644;8.494;2022-10-31T03:44:48;145.40;;;138.38;;
16354;SDS011;8287;51.644;8.494;2022-10-31T03:47:19;140.90;;;134.63;;
16354;SDS011;8287;51.644;8.494;2022-10-31T03:49:46;153.88;;;146.90;;
16354;SDS011;8287;51.644;8.494;2022-10-31T03:52:16;158.55;;;151.18;;
16354;SDS011;8287;51.644;8.494;2022-10-31T03:54:52;149.07;;;142.23;;
16354;SDS011;8287;51.644;8.494;2022-10-31T03:57:24;146.20;;;139.20;;
16354;SDS011;8287;51.644;8.494;2022-10-31T03:59:55;154.23;;;147.23;;
16354;SDS011;8287;51.644;8.494;2022-10-31T04:02:28;142.45;;;135.95;;
16354;SDS011;8287;51.644;8.494;2022-10-31T04:04:58;129.25;;;123.20;;
16354;SDS011;8287;51.644;8.494;2022-10-31T04:07:28;134.45;;;127.97;;
16354;SDS011;8287;51.644;8.494;2022-10-31T04:09:58;140.20;;;133.68;;
16354;SDS011;8287;51.644;8.494;2022-10-31T04:12:27;141.88;;;135.80;;
16354;SDS011;8287;51.644;8.494;2022-10-31T04:14:56;135.20;;;128.82;;
16354;SDS011;8287;51.644;8.494;2022-10-31T04:17:25;122.28;;;116.13;;
16354;SDS011;8287;51.644;8.494;2022-10-31T04:19:58;134.27;;;128.07;;
16354;SDS011;8287;51.644;8.494;2022-10-31T04:22:25;128.35;;;121.97;;
16354;SDS011;8287;51.644;8.494;2022-10-31T04:24:53;158.90;;;151.82;;
16354;SDS011;8287;51.644;8.494;2022-10-31T04:27:20;152.48;;;145.38;;
16354;SDS011;8287;51.644;8.494;2022-10-31T04:29:46;146.90;;;140.02;;
16354;SDS011;8287;51.644;8.494;2022-10-31T04:32:13;152.68;;;145.77;;
16354;SDS011;8287;51.644;8.494;2022-10-31T04:34:40;138.75;;;132.32;;
16354;SDS011;8287;51.644;8.494;2022-10-31T04:37:06;158.65;;;151.73;;
16354;SDS011;8287;51.644;8.494;2022-10-31T04:39:33;175.50;;;167.43;;
16354;SDS011;8287;51.644;8.494;2022-10-31T04:42:01;136.80;;;130.52;;
16354;SDS011;8287;51.644;8.494;2022-10-31T04:44:27;130.63;;;124.47;;
16354;SDS011;8287;51.644;8.494;2022-10-31T04:46:54;141.77;;;135.05;;
16354;SDS011;8287;51.644;8.494;2022-10-31T04:49:21;149.77;;;143.02;;
16354;SDS011;8287;51.644;8.494;2022-10-31T04:51:47;145.02;;;138.35;;
16354;SDS011;8287;51.644;8.494;2022-10-31T04:54:14;151.32;;;144.63;;
16354;SDS011;8287;51.644;8.494;2022-10-31T04:56:40;154.25;;;147.43;;
16354;SDS011;8287;51.644;8.494;2022-10-31T04:59:08;148.13;;;141.32;;
16354;SDS011;8287;51.644;8.494;2022-10-31T05:01:35;154.00;;;146.85;;
16354;SDS011;8287;51.644;8.494;2022-10-31T05:04:02;164.35;;;157.02;;
16354;SDS011;8287;51.644;8.494;2022-10-31T05:06:28;149.70;;;142.80;;
16354;SDS011;8287;51.644;8.494;2022-10-31T05:08:55;150.52;;;143.70;;
16354;SDS011;8287;51.644;8.494;2022-10-31T05:11:22;145.73;;;138.80;;
16354;SDS011;8287;51.644;8.494;2022-10-31T05:13:49;152.68;;;145.68;;
16354;SDS011;8287;51.644;8.494;2022-10-31T05:16:17;153.52;;;146.68;;
16354;SDS011;8287;51.644;8.494;2022-10-31T05:18:43;150.18;;;142.38;;
16354;SDS011;8287;51.644;8.494;2022-10-31T05:21:10;130.07;;;124.32;;
16354;SDS011;8287;51.644;8.494;2022-10-31T05:23:37;158.15;;;150.98;;
16354;SDS011;8287;51.644;8.494;2022-10-31T05:26:03;145.02;;;137.73;;
16354;SDS011;8287;51.644;8.494;2022-10-31T05:28:30;132.00;;;125.82;;
16354;SDS011;8287;51.644;8.494;2022-10-31T05:30:57;155.93;;;148.77;;
16354;SDS011;8287;51.644;8.494;2022-10-31T05:33:25;152.57;;;145.27;;
16354;SDS011;8287;51.644;8.494;2022-10-31T05:35:51;148.13;;;141.35;;
16354;SDS011;8287;51.644;8.494;2022-10-31T05:38:18;144.20;;;137.73;;
16354;SDS011;8287;51.644;8.494;2022-10-31T05:40:45;147.02;;;140.05;;
16354;SDS011;8287;51.644;8.494;2022-10-31T05:43:11;148.30;;;141.50;;
16354;SDS011;8287;51.644;8.494;2022-10-31T05:45:38;142.75;;;135.60;;
16354;SDS011;8287;51.644;8.494;2022-10-31T05:48:04;140.43;;;133.82;;
16354;SDS011;8287;51.644;8.494;2022-10-31T05:50:33;152.13;;;144.55;;
16354;SDS011;8287;51.644;8.494;2022-10-31T05:53:00;149.35;;;141.73;;
16354;SDS011;8287;51.644;8.494;2022-10-31T05:55:27;157.27;;;150.07;;
16354;SDS011;8287;51.644;8.494;2022-10-31T05:57:55;137.65;;;130.95;;
16354;SDS011;8287;51.644;8.494;2022-10-31T06:00:22;138.57;;;132.27;;
16354;SDS011;8287;51.644;8.494;2022-10-31T06:02:49;135.30;;;128.85;;
16354;SDS011;8287;51.644;8.494;2022-10-31T06:05:23;143.60;;;137.27;;
16354;SDS011;8287;51.644;8.494;2022-10-31T06:07:51;131.70;;;125.50;;
16354;SDS011;8287;51.644;8.494;2022-10-31T06:10:17;134.05;;;127.47;;
16354;SDS011;8287;51.644;8.494;2022-10-31T06:12:46;128.95;;;122.80;;
16354;SDS011;8287;51.644;8.494;2022-10-31T06:15:12;127.65;;;121.30;;
16354;SDS011;8287;51.644;8.494;2022-10-31T06:17:39;123.50;;;117.63;;
16354;SDS011;8287;51.644;8.494;2022-10-31T06:20:06;131.10;;;125.10;;
16354;SDS011;8287;51.644;8.494;2022-10-31T06:22:34;118.88;;;113.22;;
16354;SDS011;8287;51.644;8.494;2022-10-31T06:25:02;116.13;;;110.90;;
16354;SDS011;8287;51.644;8.494;2022-10-31T06:27:29;120.15;;;114.20;;
16354;SDS011;8287;51.644;8.494;2022-10-31T06:29:55;117.20;;;111.80;;
16354;SDS011;8287;51.644;8.494;2022-10-31T06:32:22;119.55;;;113.97;;
16354;SDS011;8287;51.644;8.494;2022-10-31T06:34:49;111.47;;;105.88;;
16354;SDS011;8287;51.644;8.494;2022-10-31T06:37:15;110.90;;;105.32;;
16354;SDS011;8287;51.644;8.494;2022-10-31T06:39:42;99.45;;;94.43;;
16354;SDS011;8287;51.644;8.494;2022-10-31T06:42:10;108.65;;;103.35;;
16354;SDS011;8287;51.644;8.494;2022-10-31T06:44:37;118.43;;;112.38;;
16354;SDS011;8287;51.644;8.494;2022-10-31T06:47:04;91.97;;;86.70;;
16354;SDS011;8287;51.644;8.494;2022-10-31T06:49:31;108.43;;;103.05;;
16354;SDS011;8287;51.644;8.494;2022-10-31T06:51:58;100.60;;;95.78;;
16354;SDS011;8287;51.644;8.494;2022-10-31T06:54:24;96.63;;;91.70;;
16354;SDS011;8287;51.644;8.494;2022-10-31T06:56:51;97.68;;;92.75;;
16354;SDS011;8287;51.644;8.494;2022-10-31T06:59:19;101.85;;;96.75;;
16354;SDS011;8287;51.644;8.494;2022-10-31T07:01:46;96.00;;;91.28;;
16354;SDS011;8287;51.644;8.494;2022-10-31T07:04:13;91.45;;;86.60;;
16354;SDS011;8287;51.644;8.494;2022-10-31T07:06:39;86.88;;;82.25;;
16354;SDS011;8287;51.644;8.494;2022-10-31T07:09:06;87.70;;;83.25;;
16354;SDS011;8287;51.644;8.494;2022-10-31T07:11:32;94.20;;;89.18;;
16354;SDS011;8287;51.644;8.494;2022-10-31T07:13:59;147.20;;;140.40;;
16354;SDS011;8287;51.644;8.494;2022-10-31T07:16:27;104.00;;;98.78;;
16354;SDS011;8287;51.644;8.494;2022-10-31T07:18:54;152.15;;;145.07;;
16354;SDS011;8287;51.644;8.494;2022-10-31T07:21:20;226.13;;;215.95;;
16354;SDS011;8287;51.644;8.494;2022-10-31T07:23:47;215.88;;;205.88;;
16354;SDS011;8287;51.644;8.494;2022-10-31T07:26:14;187.20;;;178.45;;
16354;SDS011;8287;51.644;8.494;2022-10-31T07:28:41;238.48;;;227.27;;
16354;SDS011;8287;51.644;8.494;2022-10-31T07:31:08;153.27;;;145.63;;
16354;SDS011;8287;51.644;8.494;2022-10-31T07:33:36;164.48;;;156.55;;
16354;SDS011;8287;51.644;8.494;2022-10-31T07:36:02;134.75;;;128.13;;
16354;SDS011;8287;51.644;8.494;2022-10-31T07:38:30;140.68;;;134.18;;
16354;SDS011;8287;51.644;8.494;2022-10-31T07:40:57;181.02;;;172.25;;
16354;SDS011;8287;51.644;8.494;2022-10-31T07:43:24;325.42;;;309.88;;
16354;SDS011;8287;51.644;8.494;2022-10-31T07:45:50;375.40;;;356.33;;
16354;SDS011;8287;51.644;8.494;2022-10-31T07:48:18;451.75;;;427.67;;
16354;SDS011;8287;51.644;8.494;2022-10-31T07:50:46;484.80;;;458.15;;
16354;SDS011;8287;51.644;8.494;2022-10-31T07:53:13;484.52;;;457.58;;
16354;SDS011;8287;51.644;8.494;2022-10-31T07:55:41;486.23;;;459.52;;
16354;SDS011;8287;51.644;8.494;2022-10-31T07:58:08;289.25;;;273.98;;
16354;SDS011;8287;51.644;8.494;2022-10-31T08:00:36;456.23;;;432.42;;
16354;SDS011;8287;51.644;8.494;2022-10-31T08:03:05;285.85;;;271.33;;
16354;SDS011;8287;51.644;8.494;2022-10-31T08:05:33;424.02;;;402.98;;
16354;SDS011;8287;51.644;8.494;2022-10-31T08:08:02;406.35;;;386.90;;
16354;SDS011;8287;51.644;8.494;2022-10-31T08:10:29;161.35;;;153.38;;
16354;SDS011;8287;51.644;8.494;2022-10-31T08:12:56;258.95;;;245.57;;
16354;SDS011;8287;51.644;8.494;2022-10-31T08:15:24;87.03;;;82.25;;
16354;SDS011;8287;51.644;8.494;2022-10-31T08:17:51;52.92;;;49.38;;
16354;SDS011;8287;51.644;8.494;2022-10-31T08:20:17;62.95;;;58.67;;
16354;SDS011;8287;51.644;8.494;2022-10-31T08:22:51;124.63;;;118.15;;
16354;SDS011;8287;51.644;8.494;2022-10-31T08:25:20;122.43;;;115.97;;
16354;SDS011;8287;51.644;8.494;2022-10-31T08:27:48;75.03;;;70.38;;
16354;SDS011;8287;51.644;8.494;2022-10-31T08:30:16;49.67;;;46.33;;
16354;SDS011;8287;51.644;8.494;2022-10-31T08:32:43;84.85;;;79.97;;
16354;SDS011;8287;51.644;8.494;2022-10-31T08:35:09;58.75;;;54.47;;
16354;SDS011;8287;51.644;8.494;2022-10-31T08:37:36;60.97;;;56.75;;
16354;SDS011;8287;51.644;8.494;2022-10-31T08:40:03;48.53;;;45.13;;
16354;SDS011;8287;51.644;8.494;2022-10-31T08:42:32;53.15;;;49.22;;
16354;SDS011;8287;51.644;8.494;2022-10-31T08:44:59;60.47;;;56.47;;
16354;SDS011;8287;51.644;8.494;2022-10-31T08:47:26;47.92;;;44.65;;
16354;SDS011;8287;51.644;8.494;2022-10-31T08:49:52;61.65;;;57.67;;
16354;SDS011;8287;51.644;8.494;2022-10-31T08:52:21;46.90;;;43.30;;
16354;SDS011;8287;51.644;8.494;2022-10-31T08:54:49;135.75;;;128.07;;
16354;SDS011;8287;51.644;8.494;2022-10-31T08:57:15;180.35;;;170.43;;
16354;SDS011;8287;51.644;8.494;2022-10-31T08:59:43;190.40;;;180.10;;
16354;SDS011;8287;51.644;8.494;2022-10-31T09:02:10;189.23;;;179.48;;
16354;SDS011;8287;51.644;8.494;2022-10-31T09:04:36;56.83;;;52.85;;
16354;SDS011;8287;51.644;8.494;2022-10-31T09:07:03;162.90;;;154.77;;
16354;SDS011;8287;51.644;8.494;2022-10-31T09:09:30;66.78;;;61.92;;
16354;SDS011;8287;51.644;8.494;2022-10-31T09:11:56;69.15;;;64.80;;
16354;SDS011;8287;51.644;8.494;2022-10-31T09:14:23;139.50;;;132.40;;
16354;SDS011;8287;51.644;8.494;2022-10-31T09:16:52;94.43;;;88.15;;
16354;SDS011;8287;51.644;8.494;2022-10-31T09:19:18;194.80;;;183.93;;
16354;SDS011;8287;51.644;8.494;2022-10-31T09:21:45;164.55;;;156.13;;
16354;SDS011;8287;51.644;8.494;2022-10-31T09:24:11;223.07;;;211.40;;
16354;SDS011;8287;51.644;8.494;2022-10-31T09:26:38;48.90;;;45.42;;
16354;SDS011;8287;51.644;8.494;2022-10-31T09:29:05;130.88;;;122.85;;
16354;SDS011;8287;51.644;8.494;2022-10-31T09:31:34;61.13;;;56.25;;
16354;SDS011;8287;51.644;8.494;2022-10-31T09:34:02;62.85;;;58.50;;
16354;SDS011;8287;51.644;8.494;2022-10-31T09:36:29;68.93;;;63.95;;
16354;SDS011;8287;51.644;8.494;2022-10-31T09:38:56;169.80;;;160.70;;
16354;SDS011;8287;51.644;8.494;2022-10-31T09:41:24;58.83;;;54.33;;
16354;SDS011;8287;51.644;8.494;2022-10-31T09:44:00;62.10;;;57.88;;
16354;SDS011;8287;51.644;8.494;2022-10-31T09:46:34;61.00;;;57.28;;
16354;SDS011;8287;51.644;8.494;2022-10-31T09:52:20;93.80;;;88.55;;
16354;SDS011;8287;51.644;8.494;2022-10-31T09:54:51;110.07;;;103.32;;
16354;SDS011;8287;51.644;8.494;2022-10-31T09:57:22;104.07;;;98.05;;
16354;SDS011;8287;51.644;8.494;2022-10-31T09:59:53;153.73;;;145.40;;
16354;SDS011;8287;51.644;8.494;2022-10-31T10:02:23;91.47;;;86.25;;
16354;SDS011;8287;51.644;8.494;2022-10-31T10:04:55;107.47;;;100.57;;
16354;SDS011;8287;51.644;8.494;2022-10-31T10:07:27;80.78;;;75.53;;
16354;SDS011;8287;51.644;8.494;2022-10-31T10:10:09;89.40;;;83.85;;
16354;SDS011;8287;51.644;8.494;2022-10-31T10:12:44;105.70;;;98.93;;
16354;SDS011;8287;51.644;8.494;2022-10-31T10:15:34;201.57;;;189.73;;
16354;SDS011;8287;51.644;8.494;2022-10-31T10:18:15;95.32;;;88.82;;
16354;SDS011;8287;51.644;8.494;2022-10-31T10:20:59;185.98;;;175.18;;
16354;SDS011;8287;51.644;8.494;2022-10-31T10:23:36;126.35;;;118.85;;
16354;SDS011;8287;51.644;8.494;2022-10-31T10:26:13;183.48;;;173.35;;
16354;SDS011;8287;51.644;8.494;2022-10-31T10:28:43;176.27;;;165.80;;
16354;SDS011;8287;51.644;8.494;2022-10-31T10:31:14;112.57;;;105.68;;
16354;SDS011;8287;51.644;8.494;2022-10-31T10:33:43;96.15;;;90.43;;
16354;SDS011;8287;51.644;8.494;2022-10-31T10:36:21;64.93;;;60.35;;
16354;SDS011;8287;51.644;8.494;2022-10-31T10:38:54;83.10;;;77.38;;
16354;SDS011;8287;51.644;8.494;2022-10-31T10:41:26;69.70;;;63.88;;
16354;SDS011;8287;51.644;8.494;2022-10-31T10:43:56;76.20;;;70.90;;
16354;SDS011;8287;51.644;8.494;2022-10-31T10:46:23;66.57;;;61.28;;
16354;SDS011;8287;51.644;8.494;2022-10-31T10:49:16;100.65;;;93.43;;
16354;SDS011;8287;51.644;8.494;2022-10-31T10:51:46;67.18;;;62.33;;
16354;SDS011;8287;51.644;8.494;2022-10-31T10:57:22;101.93;;;95.47;;
16354;SDS011;8287;51.644;8.494;2022-10-31T10:59:57;98.88;;;92.30;;
16354;SDS011;8287;51.644;8.494;2022-10-31T11:02:30;66.78;;;61.72;;
16354;SDS011;8287;51.644;8.494;2022-10-31T11:04:58;120.72;;;113.25;;
16354;SDS011;8287;51.644;8.494;2022-10-31T11:07:38;92.75;;;84.95;;
16354;SDS011;8287;51.644;8.494;2022-10-31T11:10:06;84.82;;;78.70;;
16354;SDS011;8287;51.644;8.494;2022-10-31T11:12:40;104.45;;;97.90;;
16354;SDS011;8287;51.644;8.494;2022-10-31T11:15:15;94.15;;;88.05;;
16354;SDS011;8287;51.644;8.494;2022-10-31T11:17:46;95.50;;;89.75;;
16354;SDS011;8287;51.644;8.494;2022-10-31T11:25:50;66.82;;;62.35;;
16354;SDS011;8287;51.644;8.494;2022-10-31T11:28:18;88.22;;;82.82;;
16354;SDS011;8287;51.644;8.494;2022-10-31T11:30:46;80.38;;;74.72;;
16354;SDS011;8287;51.644;8.494;2022-10-31T11:33:16;90.32;;;83.88;;
16354;SDS011;8287;51.644;8.494;2022-10-31T11:35:46;77.47;;;72.38;;
16354;SDS011;8287;51.644;8.494;2022-10-31T11:38:15;77.80;;;72.65;;
16354;SDS011;8287;51.644;8.494;2022-10-31T11:40:53;65.18;;;60.60;;
16354;SDS011;8287;51.644;8.494;2022-10-31T11:43:22;81.68;;;76.50;;
16354;SDS011;8287;51.644;8.494;2022-10-31T11:45:49;67.95;;;62.42;;
16354;SDS011;8287;51.644;8.494;2022-10-31T11:48:17;71.63;;;66.57;;
16354;SDS011;8287;51.644;8.494;2022-10-31T11:50:47;68.60;;;63.38;;
16354;SDS011;8287;51.644;8.494;2022-10-31T11:53:17;82.43;;;77.15;;
16354;SDS011;8287;51.644;8.494;2022-10-31T11:55:46;84.18;;;78.57;;
16354;SDS011;8287;51.644;8.494;2022-10-31T11:58:26;60.67;;;55.88;;
16354;SDS011;8287;51.644;8.494;2022-10-31T12:00:53;91.63;;;86.32;;
16354;SDS011;8287;51.644;8.494;2022-10-31T12:03:30;77.53;;;72.55;;
16354;SDS011;8287;51.644;8.494;2022-10-31T12:06:04;86.55;;;81.00;;
16354;SDS011;8287;51.644;8.494;2022-10-31T12:08:34;106.32;;;100.90;;
16354;SDS011;8287;51.644;8.494;2022-10-31T12:11:03;73.35;;;68.57;;
16354;SDS011;8287;51.644;8.494;2022-10-31T12:13:39;69.60;;;65.13;;
16354;SDS011;8287;51.644;8.494;2022-10-31T12:16:17;73.70;;;68.93;;
16354;SDS011;8287;51.644;8.494;2022-10-31T12:18:58;68.25;;;64.05;;
16354;SDS011;8287;51.644;8.494;2022-10-31T12:21:40;59.28;;;55.28;;
16354;SDS011;8287;51.644;8.494;2022-10-31T12:24:20;76.20;;;71.68;;
16354;SDS011;8287;51.644;8.494;2022-10-31T12:26:58;56.80;;;52.72;;
16354;SDS011;8287;51.644;8.494;2022-10-31T12:29:43;93.97;;;88.40;;
16354;SDS011;8287;51.644;8.494;2022-10-31T12:32:27;175.30;;;166.48;;
16354;SDS011;8287;51.644;8.494;2022-10-31T12:35:05;75.95;;;70.80;;
16354;SDS011;8287;51.644;8.494;2022-10-31T12:37:48;68.25;;;64.38;;
16354;SDS011;8287;51.644;8.494;2022-10-31T12:40:28;61.13;;;56.78;;
16354;SDS011;8287;51.644;8.494;2022-10-31T12:43:14;150.48;;;142.70;;
16354;SDS011;8287;51.644;8.494;2022-10-31T12:45:54;62.45;;;58.40;;
16354;SDS011;8287;51.644;8.494;2022-10-31T12:48:30;62.90;;;58.78;;
16354;SDS011;8287;51.644;8.494;2022-10-31T12:51:24;49.55;;;46.17;;
16354;SDS011;8287;51.644;8.494;2022-10-31T12:54:07;74.00;;;69.65;;
16354;SDS011;8287;51.644;8.494;2022-10-31T12:56:44;78.63;;;73.80;;
16354;SDS011;8287;51.644;8.494;2022-10-31T12:59:24;53.08;;;48.60;;
16354;SDS011;8287;51.644;8.494;2022-10-31T13:01:59;55.33;;;51.38;;
16354;SDS011;8287;51.644;8.494;2022-10-31T13:04:40;73.70;;;69.88;;
16354;SDS011;8287;51.644;8.494;2022-10-31T13:07:13;84.07;;;78.75;;
16354;SDS011;8287;51.644;8.494;2022-10-31T13:09:46;59.70;;;55.58;;
16354;SDS011;8287;51.644;8.494;2022-10-31T13:12:18;69.68;;;65.57;;
16354;SDS011;8287;51.644;8.494;2022-10-31T13:14:48;104.28;;;99.35;;
16354;SDS011;8287;51.644;8.494;2022-10-31T13:17:22;74.50;;;69.43;;
16354;SDS011;8287;51.644;8.494;2022-10-31T13:19:53;100.82;;;95.25;;
16354;SDS011;8287;51.644;8.494;2022-10-31T13:22:30;56.25;;;52.75;;
16354;SDS011;8287;51.644;8.494;2022-10-31T13:25:02;70.43;;;66.32;;
16354;SDS011;8287;51.644;8.494;2022-10-31T13:27:40;85.68;;;81.40;;
16354;SDS011;8287;51.644;8.494;2022-10-31T13:30:12;72.93;;;68.40;;
16354;SDS011;8287;51.644;8.494;2022-10-31T13:32:43;47.63;;;43.97;;
16354;SDS011;8287;51.644;8.494;2022-10-31T13:35:15;75.00;;;70.57;;
16354;SDS011;8287;51.644;8.494;2022-10-31T13:37:48;62.15;;;57.35;;
16354;SDS011;8287;51.644;8.494;2022-10-31T13:40:21;63.72;;;59.72;;
16354;SDS011;8287;51.644;8.494;2022-10-31T13:43:00;80.70;;;76.28;;
16354;SDS011;8287;51.644;8.494;2022-10-31T13:45:32;94.50;;;88.88;;
16354;SDS011;8287;51.644;8.494;2022-10-31T13:48:01;69.38;;;65.35;;
16354;SDS011;8287;51.644;8.494;2022-10-31T13:50:54;81.35;;;76.88;;
16354;SDS011;8287;51.644;8.494;2022-10-31T13:53:23;122.57;;;115.32;;
16354;SDS011;8287;51.644;8.494;2022-10-31T13:56:03;104.80;;;98.85;;
16354;SDS011;8287;51.644;8.494;2022-10-31T13:58:42;78.78;;;74.53;;
16354;SDS011;8287;51.644;8.494;2022-10-31T14:01:23;83.22;;;78.63;;
16354;SDS011;8287;51.644;8.494;2022-10-31T14:03:57;110.90;;;104.32;;
16354;SDS011;8287;51.644;8.494;2022-10-31T14:06:37;95.90;;;90.80;;
16354;SDS011;8287;51.644;8.494;2022-10-31T14:09:15;125.72;;;119.63;;
16354;SDS011;8287;51.644;8.494;2022-10-31T14:11:45;110.68;;;104.97;;
16354;SDS011;8287;51.644;8.494;2022-10-31T14:14:13;107.22;;;101.60;;
16354;SDS011;8287;51.644;8.494;2022-10-31T14:16:42;111.13;;;105.78;;
16354;SDS011;8287;51.644;8.494;2022-10-31T14:19:14;86.57;;;81.53;;
16354;SDS011;8287;51.644;8.494;2022-10-31T14:21:44;85.85;;;80.80;;
16354;SDS011;8287;51.644;8.494;2022-10-31T14:24:15;64.30;;;59.58;;
16354;SDS011;8287;51.644;8.494;2022-10-31T14:26:57;120.88;;;114.68;;
16354;SDS011;8287;51.644;8.494;2022-10-31T14:29:26;199.80;;;190.90;;
16354;SDS011;8287;51.644;8.494;2022-10-31T14:31:59;79.22;;;74.85;;
16354;SDS011;8287;51.644;8.494;2022-10-31T14:34:38;128.45;;;121.78;;
16354;SDS011;8287;51.644;8.494;2022-10-31T14:37:19;69.95;;;66.22;;
16354;SDS011;8287;51.644;8.494;2022-10-31T14:40:05;129.95;;;123.38;;
16354;SDS011;8287;51.644;8.494;2022-10-31T14:42:45;96.47;;;91.55;;
16354;SDS011;8287;51.644;8.494;2022-10-31T14:45:28;114.20;;;108.05;;
16354;SDS011;8287;51.644;8.494;2022-10-31T14:48:06;88.93;;;84.38;;
16354;SDS011;8287;51.644;8.494;2022-10-31T14:50:47;91.55;;;86.97;;
16354;SDS011;8287;51.644;8.494;2022-10-31T14:53:18;76.85;;;72.53;;